Bethel, Ohio
Current Conditions -  °F | °C
As of 6:27 AM on Friday 24 Oct 2014 (Local Time) from KLUK Reporting Station
Moderate Fog Moderate Fog  
Wind Chill: 41°   Ceiling: 200
Heat Index: 41°   Visibility: 0.5mi
Dew Point: 41°   Wind: 0mph
Humidity: 100%   Direction: NA
Pressure: 30.14"   Gusts: NA
Location:  38.96°N, 84.08°W
Report Text: KLUK 241027Z AUTO 00000KT 1/2SM R21L/2800V4500FT FG VV002 05/05 A3014 RMK AO2 T00500050
Loading
Personal Weather Stations






























Interactive Weather Map
Tropical Storm Tracking
New forecast layout! Learn more

10-Day Weather Forecast

Advertisements
Track Severe Weather on mobile